sensor_id;sensor_type;location;lat;lon;timestamp;pressure;altitude;pressure_sealevel;temperature;humidity
81352;BME280;70809;52.184;13.422;2023-06-22T00:00:23;101529.03;;;24.38;56.75
81352;BME280;70809;52.184;13.422;2023-06-22T00:00:54;101533.50;;;24.39;56.83
81352;BME280;70809;52.184;13.422;2023-06-22T00:01:24;101528.09;;;24.39;56.64
81352;BME280;70809;52.184;13.422;2023-06-22T00:01:55;101530.81;;;24.39;56.71
81352;BME280;70809;52.184;13.422;2023-06-22T00:02:25;101530.81;;;24.39;56.77
81352;BME280;70809;52.184;13.422;2023-06-22T00:02:55;101533.50;;;24.39;56.62
81352;BME280;70809;52.184;13.422;2023-06-22T00:03:26;101525.47;;;24.38;56.72
81352;BME280;70809;52.184;13.422;2023-06-22T00:03:56;101529.00;;;24.40;56.62
81352;BME280;70809;52.184;13.422;2023-06-22T00:04:27;101529.94;;;24.39;56.58
81352;BME280;70809;52.184;13.422;2023-06-22T00:04:57;101536.25;;;24.38;56.54
81352;BME280;70809;52.184;13.422;2023-06-22T00:05:27;101531.75;;;24.38;56.56
81352;BME280;70809;52.184;13.422;2023-06-22T00:05:58;101536.22;;;24.39;56.54
81352;BME280;70809;52.184;13.422;2023-06-22T00:06:28;101539.84;;;24.38;56.50
81352;BME280;70809;52.184;13.422;2023-06-22T00:06:58;101531.75;;;24.38;56.58
81352;BME280;70809;52.184;13.422;2023-06-22T00:07:29;101534.47;;;24.36;56.63
81352;BME280;70809;52.184;13.422;2023-06-22T00:08:02;101537.16;;;24.38;56.49
81352;BME280;70809;52.184;13.422;2023-06-22T00:08:33;101538.97;;;24.38;56.73
81352;BME280;70809;52.184;13.422;2023-06-22T00:09:12;101542.56;;;24.38;56.98
81352;BME280;70809;52.184;13.422;2023-06-22T00:09:42;101541.66;;;24.38;56.66
81352;BME280;70809;52.184;13.422;2023-06-22T00:10:13;101544.41;;;24.36;56.47
81352;BME280;70809;52.184;13.422;2023-06-22T00:10:44;101540.75;;;24.37;56.71
81352;BME280;70809;52.184;13.422;2023-06-22T00:11:14;101545.28;;;24.36;56.51
81352;BME280;70809;52.184;13.422;2023-06-22T00:11:45;101550.69;;;24.36;56.53
81352;BME280;70809;52.184;13.422;2023-06-22T00:12:15;101548.84;;;24.37;56.63
81352;BME280;70809;52.184;13.422;2023-06-22T00:12:46;101544.41;;;24.36;56.48
81352;BME280;70809;52.184;13.422;2023-06-22T00:13:16;101548.91;;;24.35;56.64
81352;BME280;70809;52.184;13.422;2023-06-22T00:13:48;101546.16;;;24.37;56.65
81352;BME280;70809;52.184;13.422;2023-06-22T00:14:18;101547.97;;;24.36;56.39
81352;BME280;70809;52.184;13.422;2023-06-22T00:14:49;101548.84;;;24.37;56.71
81352;BME280;70809;52.184;13.422;2023-06-22T00:15:19;101557.91;;;24.36;56.45
81352;BME280;70809;52.184;13.422;2023-06-22T00:15:49;101557.00;;;24.35;56.46
81352;BME280;70809;52.184;13.422;2023-06-22T00:16:20;101553.38;;;24.36;56.59
81352;BME280;70809;52.184;13.422;2023-06-22T00:16:50;101557.91;;;24.36;56.54
81352;BME280;70809;52.184;13.422;2023-06-22T00:17:21;101559.72;;;24.35;56.66
81352;BME280;70809;52.184;13.422;2023-06-22T00:17:51;101558.84;;;24.35;56.57
81352;BME280;70809;52.184;13.422;2023-06-22T00:18:21;101554.31;;;24.35;56.52
81352;BME280;70809;52.184;13.422;2023-06-22T00:18:52;101557.91;;;24.36;56.46
81352;BME280;70809;52.184;13.422;2023-06-22T00:19:22;101557.91;;;24.36;56.53
81352;BME280;70809;52.184;13.422;2023-06-22T00:19:53;101562.41;;;24.35;56.51
81352;BME280;70809;52.184;13.422;2023-06-22T00:20:23;101559.72;;;24.35;56.27
81352;BME280;70809;52.184;13.422;2023-06-22T00:20:54;101555.19;;;24.36;56.55
81352;BME280;70809;52.184;13.422;2023-06-22T00:21:25;101559.72;;;24.35;56.70
81352;BME280;70809;52.184;13.422;2023-06-22T00:21:55;101566.00;;;24.36;56.50
81352;BME280;70809;52.184;13.422;2023-06-22T00:22:25;101562.41;;;24.35;56.40
81352;BME280;70809;52.184;13.422;2023-06-22T00:22:57;101569.66;;;24.35;56.51
81352;BME280;70809;52.184;13.422;2023-06-22T00:23:27;101558.84;;;24.35;56.46
81352;BME280;70809;52.184;13.422;2023-06-22T00:23:58;101565.13;;;24.35;56.45
81352;BME280;70809;52.184;13.422;2023-06-22T00:24:28;101573.22;;;24.35;56.32
81352;BME280;70809;52.184;13.422;2023-06-22T00:24:59;101569.66;;;24.35;56.35
81352;BME280;70809;52.184;13.422;2023-06-22T00:25:29;101564.25;;;24.35;56.46
81352;BME280;70809;52.184;13.422;2023-06-22T00:25:59;101565.16;;;24.34;56.59
81352;BME280;70809;52.184;13.422;2023-06-22T00:26:31;101563.38;;;24.33;56.57
81352;BME280;70809;52.184;13.422;2023-06-22T00:27:04;101573.25;;;24.34;56.60
81352;BME280;70809;52.184;13.422;2023-06-22T00:27:37;101568.78;;;24.33;56.61
81352;BME280;70809;52.184;13.422;2023-06-22T00:28:08;101571.47;;;24.33;56.52
81352;BME280;70809;52.184;13.422;2023-06-22T00:28:38;101576.88;;;24.34;56.54
81352;BME280;70809;52.184;13.422;2023-06-22T00:29:10;101572.38;;;24.33;56.53
81352;BME280;70809;52.184;13.422;2023-06-22T00:29:40;101570.59;;;24.32;56.68
81352;BME280;70809;52.184;13.422;2023-06-22T00:30:14;101574.16;;;24.34;56.58
81352;BME280;70809;52.184;13.422;2023-06-22T00:30:59;101576.88;;;24.33;56.56
81352;BME280;70809;52.184;13.422;2023-06-22T00:31:35;101584.06;;;24.34;56.82
81352;BME280;70809;52.184;13.422;2023-06-22T00:32:06;101583.16;;;24.33;56.72
81352;BME280;70809;52.184;13.422;2023-06-22T00:32:36;101583.16;;;24.35;56.48
81352;BME280;70809;52.184;13.422;2023-06-22T00:33:09;101577.75;;;24.35;56.67
81352;BME280;70809;52.184;13.422;2023-06-22T00:33:40;101571.47;;;24.33;56.73
81352;BME280;70809;52.184;13.422;2023-06-22T00:34:10;101571.47;;;24.33;56.67
81352;BME280;70809;52.184;13.422;2023-06-22T00:34:41;101569.66;;;24.35;56.57
81352;BME280;70809;52.184;13.422;2023-06-22T00:35:11;101575.94;;;24.34;56.48
81352;BME280;70809;52.184;13.422;2023-06-22T00:35:42;101575.03;;;24.35;56.68
81352;BME280;70809;52.184;13.422;2023-06-22T00:36:12;101569.66;;;24.35;56.36
81352;BME280;70809;52.184;13.422;2023-06-22T00:36:42;101568.75;;;24.34;56.46
81352;BME280;70809;52.184;13.422;2023-06-22T00:37:13;101569.66;;;24.35;56.36
81352;BME280;70809;52.184;13.422;2023-06-22T00:37:43;101574.16;;;24.34;56.46
81352;BME280;70809;52.184;13.422;2023-06-22T00:38:14;101569.66;;;24.35;56.55
81352;BME280;70809;52.184;13.422;2023-06-22T00:38:44;101569.66;;;24.35;56.42
81352;BME280;70809;52.184;13.422;2023-06-22T00:39:14;101566.06;;;24.34;56.15
81352;BME280;70809;52.184;13.422;2023-06-22T00:39:45;101569.66;;;24.35;56.43
81352;BME280;70809;52.184;13.422;2023-06-22T00:40:15;101575.94;;;24.34;56.43
81352;BME280;70809;52.184;13.422;2023-06-22T00:40:45;101570.53;;;24.34;56.43
81352;BME280;70809;52.184;13.422;2023-06-22T00:41:16;101565.16;;;24.34;56.57
81352;BME280;70809;52.184;13.422;2023-06-22T00:41:46;101565.13;;;24.35;56.23
81352;BME280;70809;52.184;13.422;2023-06-22T00:42:17;101573.25;;;24.34;56.33
81352;BME280;70809;52.184;13.422;2023-06-22T00:42:47;101575.06;;;24.33;56.54
81352;BME280;70809;52.184;13.422;2023-06-22T00:43:18;101576.88;;;24.34;56.58
81352;BME280;70809;52.184;13.422;2023-06-22T00:43:48;101579.56;;;24.34;56.47
81352;BME280;70809;52.184;13.422;2023-06-22T00:44:20;101578.66;;;24.34;56.44
81352;BME280;70809;52.184;13.422;2023-06-22T00:44:50;101570.53;;;24.34;56.43
81352;BME280;70809;52.184;13.422;2023-06-22T00:45:21;101573.25;;;24.34;56.50
81352;BME280;70809;52.184;13.422;2023-06-22T00:46:01;101569.72;;;24.32;56.54
81352;BME280;70809;52.184;13.422;2023-06-22T00:46:31;101575.06;;;24.33;56.67
81352;BME280;70809;52.184;13.422;2023-06-22T00:47:03;101578.66;;;24.34;56.43
81352;BME280;70809;52.184;13.422;2023-06-22T00:47:34;101577.81;;;24.32;56.55
81352;BME280;70809;52.184;13.422;2023-06-22T00:48:06;101574.19;;;24.33;56.54
81352;BME280;70809;52.184;13.422;2023-06-22T00:48:38;101566.97;;;24.33;56.52
81352;BME280;70809;52.184;13.422;2023-06-22T00:49:09;101569.72;;;24.32;56.48
81352;BME280;70809;52.184;13.422;2023-06-22T00:49:39;101572.38;;;24.33;56.46
81352;BME280;70809;52.184;13.422;2023-06-22T00:50:15;101577.75;;;24.33;56.44
81352;BME280;70809;52.184;13.422;2023-06-22T00:50:48;101573.31;;;24.32;56.50
81352;BME280;70809;52.184;13.422;2023-06-22T00:51:18;101572.38;;;24.33;56.44
81352;BME280;70809;52.184;13.422;2023-06-22T00:51:49;101572.38;;;24.33;56.61
81352;BME280;70809;52.184;13.422;2023-06-22T00:52:20;101566.06;;;24.33;56.54
81352;BME280;70809;52.184;13.422;2023-06-22T00:52:53;101572.38;;;24.33;56.44
81352;BME280;70809;52.184;13.422;2023-06-22T00:53:25;101566.97;;;24.33;56.53
81352;BME280;70809;52.184;13.422;2023-06-22T00:53:55;101573.25;;;24.34;56.42
81352;BME280;70809;52.184;13.422;2023-06-22T00:54:26;101569.72;;;24.32;56.45
81352;BME280;70809;52.184;13.422;2023-06-22T00:54:57;101578.69;;;24.32;56.38
81352;BME280;70809;52.184;13.422;2023-06-22T00:55:29;101577.75;;;24.33;56.54
81352;BME280;70809;52.184;13.422;2023-06-22T00:55:59;101576.88;;;24.33;56.50
81352;BME280;70809;52.184;13.422;2023-06-22T00:56:30;101576.88;;;24.33;56.31
81352;BME280;70809;52.184;13.422;2023-06-22T00:57:00;101583.16;;;24.33;56.57
81352;BME280;70809;52.184;13.422;2023-06-22T00:57:31;101582.28;;;24.33;56.55
81352;BME280;70809;52.184;13.422;2023-06-22T00:58:02;101575.13;;;24.32;56.44
81352;BME280;70809;52.184;13.422;2023-06-22T00:58:32;101579.59;;;24.31;56.55
81352;BME280;70809;52.184;13.422;2023-06-22T00:59:03;101583.22;;;24.32;56.38
81352;BME280;70809;52.184;13.422;2023-06-22T00:59:34;101589.50;;;24.32;56.44
81352;BME280;70809;52.184;13.422;2023-06-22T01:00:09;101576.00;;;24.32;56.56
81352;BME280;70809;52.184;13.422;2023-06-22T01:00:40;101585.00;;;24.33;56.55
81352;BME280;70809;52.184;13.422;2023-06-22T01:01:11;101584.09;;;24.32;56.58
81352;BME280;70809;52.184;13.422;2023-06-22T01:01:41;101587.69;;;24.33;56.69
81352;BME280;70809;52.184;13.422;2023-06-22T01:02:11;101577.81;;;24.32;56.48
81352;BME280;70809;52.184;13.422;2023-06-22T01:02:42;101581.41;;;24.32;56.72
81352;BME280;70809;52.184;13.422;2023-06-22T01:03:12;101582.28;;;24.33;56.43
81352;BME280;70809;52.184;13.422;2023-06-22T01:03:42;101583.22;;;24.32;56.69
81352;BME280;70809;52.184;13.422;2023-06-22T01:04:13;101576.00;;;24.32;56.57
81352;BME280;70809;52.184;13.422;2023-06-22T01:04:43;101585.94;;;24.32;56.63
81352;BME280;70809;52.184;13.422;2023-06-22T01:05:14;101573.31;;;24.32;56.42
81352;BME280;70809;52.184;13.422;2023-06-22T01:05:46;101582.28;;;24.33;56.48
81352;BME280;70809;52.184;13.422;2023-06-22T01:06:26;101581.41;;;24.32;56.53
81352;BME280;70809;52.184;13.422;2023-06-22T01:07:11;101586.00;;;24.29;56.51
81352;BME280;70809;52.184;13.422;2023-06-22T01:07:55;101586.00;;;24.29;56.59
81352;BME280;70809;52.184;13.422;2023-06-22T01:08:31;101577.84;;;24.30;56.32
81352;BME280;70809;52.184;13.422;2023-06-22T01:09:11;101581.44;;;24.31;56.49
81352;BME280;70809;52.184;13.422;2023-06-22T01:09:50;101585.94;;;24.30;56.32
81352;BME280;70809;52.184;13.422;2023-06-22T01:10:26;101579.66;;;24.30;56.36
81352;BME280;70809;52.184;13.422;2023-06-22T01:11:01;101579.66;;;24.30;56.42
81352;BME280;70809;52.184;13.422;2023-06-22T01:11:37;101590.47;;;24.30;56.36
81352;BME280;70809;52.184;13.422;2023-06-22T01:12:12;101578.78;;;24.29;56.50
81352;BME280;70809;52.184;13.422;2023-06-22T01:12:45;101586.88;;;24.29;56.59
81352;BME280;70809;52.184;13.422;2023-06-22T01:13:26;101589.63;;;24.28;56.43
81352;BME280;70809;52.184;13.422;2023-06-22T01:14:03;101584.19;;;24.29;56.56
81352;BME280;70809;52.184;13.422;2023-06-22T01:14:39;101581.53;;;24.28;56.53
81352;BME280;70809;52.184;13.422;2023-06-22T01:15:15;101581.53;;;24.28;56.54
81352;BME280;70809;52.184;13.422;2023-06-22T01:15:51;101580.59;;;24.29;56.56
81352;BME280;70809;52.184;13.422;2023-06-22T01:16:24;101577.00;;;24.28;56.47
81352;BME280;70809;52.184;13.422;2023-06-22T01:16:55;101582.66;;;24.21;56.43
81352;BME280;70809;52.184;13.422;2023-06-22T01:17:26;101588.13;;;24.18;56.74
81352;BME280;70809;52.184;13.422;2023-06-22T01:17:58;101582.50;;;24.25;56.42
81352;BME280;70809;52.184;13.422;2023-06-22T01:18:30;101583.41;;;24.26;56.51
81352;BME280;70809;52.184;13.422;2023-06-22T01:19:06;101578.00;;;24.26;56.49
81352;BME280;70809;52.184;13.422;2023-06-22T01:19:47;101576.25;;;24.23;56.64
81352;BME280;70809;52.184;13.422;2023-06-22T01:20:20;101584.31;;;24.25;56.47
81352;BME280;70809;52.184;13.422;2023-06-22T01:20:52;101573.50;;;24.25;56.61
81352;BME280;70809;52.184;13.422;2023-06-22T01:21:24;101574.38;;;24.25;56.62
81352;BME280;70809;52.184;13.422;2023-06-22T01:21:56;101579.78;;;24.25;56.73
81352;BME280;70809;52.184;13.422;2023-06-22T01:22:30;101573.50;;;24.26;56.52
81352;BME280;70809;52.184;13.422;2023-06-22T01:23:09;101578.00;;;24.26;56.55
81352;BME280;70809;52.184;13.422;2023-06-22T01:23:50;101577.16;;;24.24;56.47
81352;BME280;70809;52.184;13.422;2023-06-22T01:24:24;101584.31;;;24.25;56.51
81352;BME280;70809;52.184;13.422;2023-06-22T01:25:02;101577.09;;;24.25;56.47
81352;BME280;70809;52.184;13.422;2023-06-22T01:25:45;101580.72;;;24.26;56.42
81352;BME280;70809;52.184;13.422;2023-06-22T01:26:18;101584.31;;;24.25;56.61
81352;BME280;70809;52.184;13.422;2023-06-22T01:26:57;101585.19;;;24.25;56.46
81352;BME280;70809;52.184;13.422;2023-06-22T01:27:40;101579.91;;;24.22;56.53
81352;BME280;70809;52.184;13.422;2023-06-22T01:28:24;101577.16;;;24.24;56.50
81352;BME280;70809;52.184;13.422;2023-06-22T01:28:58;101577.16;;;24.24;56.54
81352;BME280;70809;52.184;13.422;2023-06-22T01:29:30;101580.72;;;24.24;56.59
81352;BME280;70809;52.184;13.422;2023-06-22T01:30:04;101575.31;;;24.24;56.47
81352;BME280;70809;52.184;13.422;2023-06-22T01:30:36;101569.97;;;24.23;56.66
81352;BME280;70809;52.184;13.422;2023-06-22T01:31:07;101576.22;;;24.25;56.59
81352;BME280;70809;52.184;13.422;2023-06-22T01:31:39;101578.91;;;24.25;56.62
81352;BME280;70809;52.184;13.422;2023-06-22T01:32:11;101579.78;;;24.25;56.79
81352;BME280;70809;52.184;13.422;2023-06-22T01:32:43;101586.09;;;24.26;56.60
81352;BME280;70809;52.184;13.422;2023-06-22T01:33:15;101578.00;;;24.26;56.61
81352;BME280;70809;52.184;13.422;2023-06-22T01:33:49;101580.72;;;24.26;56.61
81352;BME280;70809;52.184;13.422;2023-06-22T01:34:21;101572.59;;;24.26;56.61
81352;BME280;70809;52.184;13.422;2023-06-22T01:34:52;101572.59;;;24.26;56.49
81352;BME280;70809;52.184;13.422;2023-06-22T01:35:23;101579.78;;;24.27;56.53
81352;BME280;70809;52.184;13.422;2023-06-22T01:35:54;101577.06;;;24.27;56.27
81352;BME280;70809;52.184;13.422;2023-06-22T01:36:25;101582.47;;;24.27;56.48
81352;BME280;70809;52.184;13.422;2023-06-22T01:36:56;101572.56;;;24.27;56.67
81352;BME280;70809;52.184;13.422;2023-06-22T01:37:28;101573.44;;;24.28;56.47
81352;BME280;70809;52.184;13.422;2023-06-22T01:37:59;101575.19;;;24.29;56.47
81352;BME280;70809;52.184;13.422;2023-06-22T01:38:30;101586.00;;;24.29;56.38
81352;BME280;70809;52.184;13.422;2023-06-22T01:39:02;101577.91;;;24.29;56.53
81352;BME280;70809;52.184;13.422;2023-06-22T01:39:35;101580.59;;;24.29;56.37
81352;BME280;70809;52.184;13.422;2023-06-22T01:40:07;101582.47;;;24.27;56.47
81352;BME280;70809;52.184;13.422;2023-06-22T01:40:38;101584.25;;;24.28;56.43
81352;BME280;70809;52.184;13.422;2023-06-22T01:41:09;101582.47;;;24.27;56.35
81352;BME280;70809;52.184;13.422;2023-06-22T01:41:40;101583.28;;;24.29;56.26
81352;BME280;70809;52.184;13.422;2023-06-22T01:42:12;101589.63;;;24.28;56.41
81352;BME280;70809;52.184;13.422;2023-06-22T01:42:42;101581.53;;;24.28;56.37
81352;BME280;70809;52.184;13.422;2023-06-22T01:43:13;101578.88;;;24.26;56.42
81352;BME280;70809;52.184;13.422;2023-06-22T01:43:45;101577.91;;;24.29;56.56
81352;BME280;70809;52.184;13.422;2023-06-22T01:44:18;101592.34;;;24.28;56.35
81352;BME280;70809;52.184;13.422;2023-06-22T01:44:48;101589.88;;;24.20;56.62
81352;BME280;70809;52.184;13.422;2023-06-22T01:45:18;101588.81;;;24.26;56.34
81352;BME280;70809;52.184;13.422;2023-06-22T01:45:50;101587.88;;;24.27;56.25
81352;BME280;70809;52.184;13.422;2023-06-22T01:46:21;101585.16;;;24.27;56.41
81352;BME280;70809;52.184;13.422;2023-06-22T01:46:52;101586.94;;;24.28;56.39
81352;BME280;70809;52.184;13.422;2023-06-22T01:47:23;101587.00;;;24.26;56.48
81352;BME280;70809;52.184;13.422;2023-06-22T01:47:54;101592.38;;;24.26;56.41
81352;BME280;70809;52.184;13.422;2023-06-22T01:48:25;101583.41;;;24.26;56.64
81352;BME280;70809;52.184;13.422;2023-06-22T01:48:56;101587.88;;;24.27;56.46
81352;BME280;70809;52.184;13.422;2023-06-22T01:49:27;101588.81;;;24.26;56.46
81352;BME280;70809;52.184;13.422;2023-06-22T01:49:58;101587.91;;;24.25;56.54
81352;BME280;70809;52.184;13.422;2023-06-22T01:50:29;101582.47;;;24.27;56.37
81352;BME280;70809;52.184;13.422;2023-06-22T01:50:59;101578.00;;;24.26;56.26
81352;BME280;70809;52.184;13.422;2023-06-22T01:51:30;101581.59;;;24.26;56.46
81352;BME280;70809;52.184;13.422;2023-06-22T01:52:00;101587.88;;;24.27;56.46
81352;BME280;70809;52.184;13.422;2023-06-22T01:52:31;101585.16;;;24.27;56.39
81352;BME280;70809;52.184;13.422;2023-06-22T01:53:01;101578.88;;;24.26;56.38
81352;BME280;70809;52.184;13.422;2023-06-22T01:53:31;101589.63;;;24.28;56.41
81352;BME280;70809;52.184;13.422;2023-06-22T01:54:02;101580.66;;;24.27;56.40
81352;BME280;70809;52.184;13.422;2023-06-22T01:54:32;101587.88;;;24.27;56.37
81352;BME280;70809;52.184;13.422;2023-06-22T01:55:04;101577.94;;;24.27;56.19
81352;BME280;70809;52.184;13.422;2023-06-22T01:55:34;101582.47;;;24.27;56.53
81352;BME280;70809;52.184;13.422;2023-06-22T01:56:05;101586.09;;;24.26;56.33
81352;BME280;70809;52.184;13.422;2023-06-22T01:56:35;101582.47;;;24.27;56.40
81352;BME280;70809;52.184;13.422;2023-06-22T01:57:06;101588.75;;;24.27;56.44
81352;BME280;70809;52.184;13.422;2023-06-22T01:57:36;101582.47;;;24.27;56.32
81352;BME280;70809;52.184;13.422;2023-06-22T01:58:07;101583.34;;;24.27;56.33
81352;BME280;70809;52.184;13.422;2023-06-22T01:58:43;101591.50;;;24.26;56.42
81352;BME280;70809;52.184;13.422;2023-06-22T01:59:22;101586.09;;;24.26;56.28
81352;BME280;70809;52.184;13.422;2023-06-22T01:59:59;101588.81;;;24.26;56.29
81352;BME280;70809;52.184;13.422;2023-06-22T02:00:34;101589.69;;;24.26;56.34
81352;BME280;70809;52.184;13.422;2023-06-22T02:01:10;101587.00;;;24.25;56.54
81352;BME280;70809;52.184;13.422;2023-06-22T02:01:43;101590.59;;;24.25;56.52
81352;BME280;70809;52.184;13.422;2023-06-22T02:02:15;101594.22;;;24.26;56.47
81352;BME280;70809;52.184;13.422;2023-06-22T02:02:52;101590.59;;;24.25;56.46
81352;BME280;70809;52.184;13.422;2023-06-22T02:03:27;101592.41;;;24.25;56.52
81352;BME280;70809;52.184;13.422;2023-06-22T02:04:04;101594.22;;;24.24;56.43
81352;BME280;70809;52.184;13.422;2023-06-22T02:04:39;101582.50;;;24.25;56.56
81352;BME280;70809;52.184;13.422;2023-06-22T02:05:16;101586.09;;;24.26;56.39
81352;BME280;70809;52.184;13.422;2023-06-22T02:05:50;101589.69;;;24.26;56.54
81352;BME280;70809;52.184;13.422;2023-06-22T02:06:24;101591.53;;;24.24;56.53
81352;BME280;70809;52.184;13.422;2023-06-22T02:06:59;101589.69;;;24.26;56.34
81352;BME280;70809;52.184;13.422;2023-06-22T02:07:33;101590.59;;;24.25;56.25
81352;BME280;70809;52.184;13.422;2023-06-22T02:08:08;101594.22;;;24.26;56.03
81352;BME280;70809;52.184;13.422;2023-06-22T02:08:41;101587.00;;;24.26;56.22
81352;BME280;70809;52.184;13.422;2023-06-22T02:09:17;101591.50;;;24.26;56.22
81352;BME280;70809;52.184;13.422;2023-06-22T02:09:48;101591.50;;;24.26;56.28
81352;BME280;70809;52.184;13.422;2023-06-22T02:10:21;101596.91;;;24.26;56.36
81352;BME280;70809;52.184;13.422;2023-06-22T02:10:54;101605.91;;;24.25;56.33
81352;BME280;70809;52.184;13.422;2023-06-22T02:11:26;101597.81;;;24.25;56.41
81352;BME280;70809;52.184;13.422;2023-06-22T02:11:58;101599.63;;;24.26;56.19
81352;BME280;70809;52.184;13.422;2023-06-22T02:12:30;101598.94;;;24.18;56.53
81352;BME280;70809;52.184;13.422;2023-06-22T02:13:03;101603.28;;;24.23;56.23
81352;BME280;70809;52.184;13.422;2023-06-22T02:13:36;101601.44;;;24.24;56.46
81352;BME280;70809;52.184;13.422;2023-06-22T02:14:07;101604.16;;;24.24;56.21
81352;BME280;70809;52.184;13.422;2023-06-22T02:14:39;101604.16;;;24.24;56.24
81352;BME280;70809;52.184;13.422;2023-06-22T02:15:10;101608.84;;;24.17;56.42
81352;BME280;70809;52.184;13.422;2023-06-22T02:15:41;101605.13;;;24.21;56.32
81352;BME280;70809;52.184;13.422;2023-06-22T02:16:13;101604.19;;;24.22;56.31
81352;BME280;70809;52.184;13.422;2023-06-22T02:16:45;101609.59;;;24.22;56.43
81352;BME280;70809;52.184;13.422;2023-06-22T02:17:17;101603.31;;;24.22;56.11
81352;BME280;70809;52.184;13.422;2023-06-22T02:17:48;101605.13;;;24.21;56.50
81352;BME280;70809;52.184;13.422;2023-06-22T02:18:18;101601.50;;;24.22;56.29
81352;BME280;70809;52.184;13.422;2023-06-22T02:18:50;101606.03;;;24.22;56.33
81352;BME280;70809;52.184;13.422;2023-06-22T02:19:22;101606.91;;;24.22;56.32
81352;BME280;70809;52.184;13.422;2023-06-22T02:19:53;101606.03;;;24.22;56.26
81352;BME280;70809;52.184;13.422;2023-06-22T02:20:24;101613.19;;;24.23;56.41
81352;BME280;70809;52.184;13.422;2023-06-22T02:20:54;101618.59;;;24.23;56.41
81352;BME280;70809;52.184;13.422;2023-06-22T02:21:24;101624.00;;;24.23;56.24
81352;BME280;70809;52.184;13.422;2023-06-22T02:21:55;101611.38;;;24.23;56.22
81352;BME280;70809;52.184;13.422;2023-06-22T02:22:25;101612.31;;;24.22;56.40
81352;BME280;70809;52.184;13.422;2023-06-22T02:22:56;101619.47;;;24.23;56.24
81352;BME280;70809;52.184;13.422;2023-06-22T02:23:26;101612.25;;;24.24;56.16
81352;BME280;70809;52.184;13.422;2023-06-22T02:23:56;101615.88;;;24.23;56.24
81352;BME280;70809;52.184;13.422;2023-06-22T02:24:27;101611.44;;;24.22;56.30
81352;BME280;70809;52.184;13.422;2023-06-22T02:24:57;101604.16;;;24.24;56.31
81352;BME280;70809;52.184;13.422;2023-06-22T02:25:27;101609.59;;;24.22;56.29
81352;BME280;70809;52.184;13.422;2023-06-22T02:25:58;101609.59;;;24.22;56.12
81352;BME280;70809;52.184;13.422;2023-06-22T02:26:28;101617.66;;;24.24;56.23
81352;BME280;70809;52.184;13.422;2023-06-22T02:26:59;101610.50;;;24.23;56.31
81352;BME280;70809;52.184;13.422;2023-06-22T02:27:30;101614.06;;;24.23;56.28
81352;BME280;70809;52.184;13.422;2023-06-22T02:28:01;101621.28;;;24.23;56.18
81352;BME280;70809;52.184;13.422;2023-06-22T02:28:31;101616.81;;;24.22;56.16
81352;BME280;70809;52.184;13.422;2023-06-22T02:29:01;101623.09;;;24.22;56.27
81352;BME280;70809;52.184;13.422;2023-06-22T02:29:32;101619.53;;;24.22;56.19
81352;BME280;70809;52.184;13.422;2023-06-22T02:30:06;101621.28;;;24.23;56.21
81352;BME280;70809;52.184;13.422;2023-06-22T02:30:36;101622.22;;;24.22;56.38
81352;BME280;70809;52.184;13.422;2023-06-22T02:31:07;101617.75;;;24.21;56.66
81352;BME280;70809;52.184;13.422;2023-06-22T02:31:37;101617.75;;;24.21;56.17
81352;BME280;70809;52.184;13.422;2023-06-22T02:32:08;101615.94;;;24.21;56.43
81352;BME280;70809;52.184;13.422;2023-06-22T02:32:38;101620.41;;;24.22;56.51
81352;BME280;70809;52.184;13.422;2023-06-22T02:33:08;101618.59;;;24.23;56.42
81352;BME280;70809;52.184;13.422;2023-06-22T02:33:39;101614.06;;;24.23;56.25
81352;BME280;70809;52.184;13.422;2023-06-22T02:34:09;101620.34;;;24.24;56.41
81352;BME280;70809;52.184;13.422;2023-06-22T02:34:39;101614.94;;;24.24;56.37
81352;BME280;70809;52.184;13.422;2023-06-22T02:35:10;101620.34;;;24.24;56.44
81352;BME280;70809;52.184;13.422;2023-06-22T02:35:40;101614.06;;;24.23;56.31
81352;BME280;70809;52.184;13.422;2023-06-22T02:36:11;101624.88;;;24.23;56.41
81352;BME280;70809;52.184;13.422;2023-06-22T02:36:41;101618.59;;;24.23;56.37
81352;BME280;70809;52.184;13.422;2023-06-22T02:37:11;101619.47;;;24.23;56.24
81352;BME280;70809;52.184;13.422;2023-06-22T02:37:42;101620.34;;;24.24;56.21
81352;BME280;70809;52.184;13.422;2023-06-22T02:38:13;101625.69;;;24.25;56.22
81352;BME280;70809;52.184;13.422;2023-06-22T02:38:43;101623.91;;;24.26;56.00
81352;BME280;70809;52.184;13.422;2023-06-22T02:39:14;101623.91;;;24.26;56.34
81352;BME280;70809;52.184;13.422;2023-06-22T02:39:44;101619.41;;;24.25;56.12
81352;BME280;70809;52.184;13.422;2023-06-22T02:40:15;101623.06;;;24.24;56.24
81352;BME280;70809;52.184;13.422;2023-06-22T02:40:45;101626.63;;;24.24;56.11
81352;BME280;70809;52.184;13.422;2023-06-22T02:41:16;101623.06;;;24.24;56.05
81352;BME280;70809;52.184;13.422;2023-06-22T02:41:46;101626.69;;;24.23;56.25
81352;BME280;70809;52.184;13.422;2023-06-22T02:42:16;101624.81;;;24.25;55.98
81352;BME280;70809;52.184;13.422;2023-06-22T02:42:47;101626.63;;;24.24;56.13
81352;BME280;70809;52.184;13.422;2023-06-22T02:43:17;101627.56;;;24.23;56.11
81352;BME280;70809;52.184;13.422;2023-06-22T02:43:47;101618.59;;;24.23;56.28
81352;BME280;70809;52.184;13.422;2023-06-22T02:44:18;101621.28;;;24.23;56.05
81352;BME280;70809;52.184;13.422;2023-06-22T02:44:49;101621.25;;;24.24;56.09
81352;BME280;70809;52.184;13.422;2023-06-22T02:45:21;101623.06;;;24.24;56.22